createdAt,value
2018-02-15T00:02:58.176Z,3.30
2018-02-15T00:05:59.625Z,3.30
2018-02-15T00:09:01.074Z,3.30
2018-02-15T00:12:02.555Z,3.50
2018-02-15T00:15:04.812Z,3.30
2018-02-15T00:18:06.259Z,3.10
2018-02-15T00:21:07.751Z,3.30
2018-02-15T00:24:09.159Z,3.30
2018-02-15T00:27:10.604Z,3.30
2018-02-15T00:30:11.988Z,3.30
2018-02-15T00:33:14.273Z,3.40
2018-02-15T00:36:20.009Z,3.50
2018-02-15T00:39:21.514Z,3.30
2018-02-15T00:42:22.946Z,3.30
2018-02-15T00:45:25.279Z,3.30
2018-02-15T00:48:26.727Z,3.30
2018-02-15T00:51:28.920Z,3.30
2018-02-15T00:54:30.381Z,3.20
2018-02-15T00:57:31.868Z,3.30
2018-02-15T01:00:33.338Z,3.40
2018-02-15T01:03:34.816Z,3.20
2018-02-15T01:06:36.331Z,3.50
2018-02-15T01:09:37.732Z,3.70
2018-02-15T01:12:39.148Z,3.40
2018-02-15T01:15:41.319Z,3.40
2018-02-15T01:18:42.797Z,3.20
2018-02-15T01:21:44.266Z,3.50
2018-02-15T01:24:45.761Z,3.40
2018-02-15T01:27:47.204Z,3.40
2018-02-15T01:30:48.667Z,3.50
2018-02-15T01:33:50.868Z,3.40
2018-02-15T01:36:53.047Z,3.50
2018-02-15T01:39:54.458Z,3.30
2018-02-15T01:42:55.928Z,3.40
2018-02-15T01:45:57.333Z,3.40
2018-02-15T01:48:59.482Z,3.50
2018-02-15T01:52:00.950Z,3.40
2018-02-15T01:55:02.416Z,3.50
2018-02-15T01:58:03.813Z,3.50
2018-02-15T02:01:05.452Z,3.40
2018-02-15T02:04:07.599Z,3.40
2018-02-15T02:07:09.084Z,3.10
2018-02-15T02:10:10.516Z,3.50
2018-02-15T02:13:11.970Z,3.50
2018-02-15T02:16:13.410Z,3.40
2018-02-15T02:19:14.831Z,3.30
2018-02-15T02:22:16.300Z,3.50
2018-02-15T02:25:18.483Z,3.60
2018-02-15T02:28:19.882Z,3.70
2018-02-15T02:31:22.033Z,3.60
2018-02-15T02:34:23.463Z,3.60
2018-02-15T02:37:24.863Z,3.50
2018-02-15T02:40:26.980Z,3.70
2018-02-15T02:43:28.434Z,3.70
2018-02-15T02:46:30.569Z,3.60
2018-02-15T02:49:31.946Z,3.60
2018-02-15T02:52:33.339Z,3.70
2018-02-15T02:55:34.775Z,3.60
2018-02-15T02:58:36.213Z,3.60
2018-02-15T03:01:37.615Z,3.60
2018-02-15T03:04:39.128Z,3.60
2018-02-15T03:07:40.544Z,3.50
2018-02-15T03:10:42.663Z,3.70
2018-02-15T03:13:44.127Z,3.70
2018-02-15T03:16:45.627Z,3.70
2018-02-15T03:19:47.099Z,3.60
2018-02-15T03:22:49.266Z,3.70
2018-02-15T03:25:50.641Z,3.70
2018-02-15T03:28:52.116Z,3.80
2018-02-15T03:31:53.497Z,3.70
2018-02-15T03:34:54.992Z,3.40
2018-02-15T03:37:56.416Z,3.60
2018-02-15T03:40:58.912Z,3.70
2018-02-15T03:44:01.042Z,3.70
2018-02-15T03:47:02.435Z,3.40
2018-02-15T03:50:03.945Z,3.70
2018-02-15T03:53:06.121Z,3.80
2018-02-15T03:56:07.522Z,3.80
2018-02-15T03:59:09.006Z,3.70
2018-02-15T04:02:10.443Z,3.90
2018-02-15T04:05:12.588Z,3.70
2018-02-15T04:08:13.950Z,3.60
2018-02-15T04:11:15.391Z,3.70
2018-02-15T04:14:16.816Z,3.70
2018-02-15T04:17:18.221Z,3.60
2018-02-15T04:20:19.673Z,3.60
2018-02-15T04:23:21.161Z,3.60
2018-02-15T04:26:22.577Z,3.60
2018-02-15T04:29:24.017Z,3.40
2018-02-15T04:32:26.189Z,3.30
2018-02-15T04:35:27.622Z,3.30
2018-02-15T04:38:29.063Z,3.10
2018-02-15T04:41:30.471Z,3.10
2018-02-15T04:44:32.749Z,3.00
2018-02-15T04:47:34.273Z,3.00
2018-02-15T04:50:35.712Z,2.90
2018-02-15T04:53:37.141Z,2.80
2018-02-15T04:56:38.570Z,2.70
2018-02-15T04:59:40.049Z,2.60
2018-02-15T05:02:41.530Z,2.60
2018-02-15T05:05:42.973Z,2.70
2018-02-15T05:08:45.150Z,2.80
2018-02-15T05:14:55.590Z,2.40
2018-02-15T05:17:57.046Z,2.40
2018-02-15T05:20:58.447Z,2.10
2018-02-15T05:23:59.855Z,2.20
2018-02-15T05:27:02.018Z,2.20
2018-02-15T05:30:03.490Z,2.10
2018-02-15T05:33:04.937Z,2.20
2018-02-15T05:36:06.404Z,2.00
2018-02-15T05:39:08.555Z,2.10
2018-02-15T05:42:09.954Z,2.00
2018-02-15T05:45:12.442Z,2.00
2018-02-15T05:48:13.919Z,1.80
2018-02-15T05:51:15.399Z,2.40
2018-02-15T05:54:16.809Z,2.10
2018-02-15T05:57:18.239Z,2.00
2018-02-15T06:00:20.421Z,2.00
2018-02-15T06:03:21.865Z,1.90
2018-02-15T06:06:23.337Z,2.10
2018-02-15T06:09:24.805Z,1.90
2018-02-15T06:12:26.327Z,2.30
2018-02-15T06:15:27.805Z,2.30
2018-02-15T06:18:29.251Z,2.20
2018-02-15T06:21:31.412Z,2.30
2018-02-15T06:24:32.888Z,2.30
2018-02-15T06:27:34.428Z,2.10
2018-02-15T06:33:44.019Z,2.20
2018-02-15T06:36:45.542Z,2.10
2018-02-15T06:39:47.061Z,2.20
2018-02-15T06:42:49.278Z,2.10
2018-02-15T06:45:50.756Z,2.10
2018-02-15T06:48:52.256Z,2.20
2018-02-15T06:51:53.703Z,2.20
2018-02-15T06:54:55.199Z,2.30
2018-02-15T06:57:57.351Z,2.30
2018-02-15T07:00:58.759Z,2.30
2018-02-15T07:04:00.179Z,2.10
2018-02-15T07:07:01.579Z,2.20
2018-02-15T07:10:03.034Z,2.50
2018-02-15T07:13:05.208Z,2.50
2018-02-15T07:16:06.753Z,2.50
2018-02-15T07:19:08.180Z,2.40
2018-02-15T07:22:09.693Z,2.50
2018-02-15T07:25:11.138Z,2.50
2018-02-15T07:28:12.564Z,2.40
2018-02-15T07:31:13.973Z,2.50
2018-02-15T07:34:15.482Z,2.70
2018-02-15T07:37:16.896Z,2.30
2018-02-15T07:40:19.081Z,2.70
2018-02-15T07:43:20.497Z,2.70
2018-02-15T07:46:22.682Z,2.70
2018-02-15T07:49:24.867Z,2.80
2018-02-15T07:52:26.339Z,2.60
2018-02-15T07:55:27.778Z,2.70
2018-02-15T07:58:29.301Z,2.80
2018-02-15T08:01:30.719Z,2.80
2018-02-15T08:04:32.871Z,3.30
2018-02-15T08:07:34.326Z,3.20
2018-02-15T08:10:35.726Z,3.00
2018-02-15T08:13:37.167Z,3.00
2018-02-15T08:16:38.610Z,2.90
2018-02-15T08:19:40.152Z,3.10
2018-02-15T08:22:42.299Z,3.20
2018-02-15T08:25:44.494Z,3.20
2018-02-15T08:28:46.036Z,3.00
2018-02-15T08:31:47.564Z,3.20
2018-02-15T08:34:49.054Z,3.40
2018-02-15T08:37:50.550Z,3.20
2018-02-15T08:40:52.018Z,3.20
2018-02-15T08:43:54.182Z,3.30
2018-02-15T08:46:55.593Z,3.30
2018-02-15T08:49:57.814Z,3.30
2018-02-15T08:53:00.010Z,3.40
2018-02-15T08:56:01.419Z,3.30
2018-02-15T08:59:02.928Z,3.00
2018-02-15T09:02:04.389Z,3.40
2018-02-15T09:05:05.801Z,3.30
2018-02-15T09:08:07.236Z,3.40
2018-02-15T09:11:09.394Z,3.30
2018-02-15T09:14:11.461Z,3.30
2018-02-15T09:17:13.629Z,3.40
2018-02-15T09:20:15.158Z,3.20
2018-02-15T09:23:16.562Z,3.40
2018-02-15T09:26:17.921Z,3.40
2018-02-15T09:29:19.365Z,3.30
2018-02-15T09:32:20.804Z,3.30
2018-02-15T09:35:22.227Z,3.30
2018-02-15T09:38:23.630Z,3.40
2018-02-15T09:41:25.089Z,3.40
2018-02-15T09:44:26.478Z,3.20
2018-02-15T09:47:27.938Z,3.10
2018-02-15T09:50:29.363Z,3.30
2018-02-15T09:53:30.775Z,3.30
2018-02-15T09:56:32.171Z,3.30
2018-02-15T09:59:33.595Z,3.20
2018-02-15T10:02:35.056Z,3.30
2018-02-15T10:05:37.218Z,3.20
2018-02-15T10:08:38.670Z,3.10
2018-02-15T10:11:40.146Z,3.10
2018-02-15T10:14:41.564Z,3.30
2018-02-15T10:17:43.009Z,3.20
2018-02-15T10:20:44.437Z,3.30
2018-02-15T10:23:45.870Z,3.20
2018-02-15T10:26:48.045Z,3.20
2018-02-15T10:29:49.453Z,3.10
2018-02-15T10:32:50.880Z,3.10
2018-02-15T10:35:52.287Z,3.00
2018-02-15T10:38:53.718Z,3.10
2018-02-15T10:41:55.857Z,3.10
2018-02-15T10:44:57.295Z,3.10
2018-02-15T10:47:58.694Z,3.20
2018-02-15T10:51:00.118Z,3.10
2018-02-15T10:54:01.535Z,3.10
2018-02-15T10:57:02.971Z,3.10
2018-02-15T11:00:04.419Z,3.10
2018-02-15T11:03:12.034Z,3.20
2018-02-15T11:06:13.534Z,3.00
2018-02-15T11:09:14.978Z,3.20
2018-02-15T11:12:16.445Z,3.20
2018-02-15T11:15:17.899Z,3.30
2018-02-15T11:18:19.374Z,3.30
2018-02-15T11:21:20.818Z,2.90
2018-02-15T11:24:22.312Z,3.20
2018-02-15T11:27:23.793Z,3.10
2018-02-15T11:30:25.312Z,3.30
2018-02-15T11:33:26.762Z,3.10
2018-02-15T11:36:28.207Z,3.00
2018-02-15T11:39:29.693Z,3.20
2018-02-15T11:42:31.166Z,3.00
2018-02-15T11:45:32.586Z,3.10
2018-02-15T11:48:34.022Z,3.30
2018-02-15T11:51:35.425Z,3.40
2018-02-15T11:54:36.846Z,3.40
2018-02-15T11:57:38.289Z,3.40
2018-02-15T12:00:39.858Z,3.20
2018-02-15T12:03:42.107Z,3.50
2018-02-15T12:06:43.547Z,3.60
2018-02-15T12:09:45.714Z,3.60
2018-02-15T12:12:47.126Z,3.50
2018-02-15T12:15:49.273Z,3.60
2018-02-15T12:18:50.718Z,3.60
2018-02-15T12:21:52.142Z,3.70
2018-02-15T12:24:53.585Z,3.50
2018-02-15T12:27:55.766Z,3.70
2018-02-15T12:30:57.967Z,3.70
2018-02-15T12:34:00.127Z,3.70
2018-02-15T12:37:01.559Z,3.70
2018-02-15T12:40:03.718Z,3.70
2018-02-15T12:43:05.922Z,3.70
2018-02-15T12:46:07.373Z,3.80
2018-02-15T12:49:08.834Z,3.80
2018-02-15T12:52:10.297Z,3.80
2018-02-15T12:55:12.604Z,3.60
2018-02-15T12:58:14.235Z,3.80
2018-02-15T13:01:15.859Z,3.80
2018-02-15T13:04:17.342Z,3.90
2018-02-15T13:07:19.640Z,4.00
2018-02-15T13:10:21.093Z,3.70
2018-02-15T13:13:30.509Z,4.00
2018-02-15T13:16:50.273Z,4.10
2018-02-15T13:20:07.784Z,3.90
2018-02-15T13:23:09.225Z,3.90
2018-02-15T13:26:12.379Z,4.00
2018-02-15T13:29:13.880Z,3.80
2018-02-15T13:32:15.345Z,4.00
2018-02-15T13:35:16.901Z,4.00
2018-02-15T13:38:18.417Z,4.00
2018-02-15T13:41:19.945Z,4.10
2018-02-15T13:44:21.533Z,4.00
2018-02-15T13:47:23.135Z,3.80
2018-02-15T13:50:24.579Z,4.10
2018-02-15T13:53:26.042Z,4.10
2018-02-15T13:56:27.571Z,4.10
2018-02-15T13:59:29.415Z,4.10
2018-02-15T14:02:30.970Z,4.10
2018-02-15T14:05:33.157Z,4.30
2018-02-15T14:08:34.579Z,4.20
2018-02-15T14:11:36.500Z,4.40
2018-02-15T14:14:40.164Z,4.30
2018-02-15T14:17:42.455Z,4.40
2018-02-15T14:20:44.092Z,4.20
2018-02-15T14:23:45.727Z,4.40
2018-02-15T14:26:47.540Z,4.50
2018-02-15T14:29:49.003Z,4.50
2018-02-15T14:32:51.020Z,4.40
2018-02-15T14:35:53.111Z,4.50
2018-02-15T14:38:54.660Z,4.60
2018-02-15T14:41:56.121Z,4.50
2018-02-15T14:44:58.449Z,4.70
2018-02-15T14:48:00.736Z,4.70
2018-02-15T14:51:02.884Z,4.60
2018-02-15T14:54:05.732Z,4.90
2018-02-15T14:57:07.388Z,4.80
2018-02-15T15:00:10.161Z,4.80
2018-02-15T15:03:11.720Z,4.90
2018-02-15T15:06:13.255Z,5.00
2018-02-15T15:09:15.378Z,4.70
2018-02-15T15:12:16.969Z,4.80
2018-02-15T15:15:18.624Z,4.80
2018-02-15T15:18:20.529Z,4.80
2018-02-15T15:21:22.230Z,4.80
2018-02-15T15:24:24.575Z,4.80
2018-02-15T15:27:27.274Z,4.90
2018-02-15T15:30:29.788Z,4.80
2018-02-15T15:33:32.024Z,4.80
2018-02-15T15:36:33.595Z,4.80
2018-02-15T15:39:34.999Z,4.80
2018-02-15T15:42:36.570Z,4.70
2018-02-15T15:45:38.791Z,4.80
2018-02-15T15:48:40.293Z,4.90
2018-02-15T15:51:42.539Z,4.80
2018-02-15T15:54:44.070Z,4.70
2018-02-15T15:57:45.479Z,4.80
2018-02-15T16:00:47.683Z,4.80
2018-02-15T16:03:49.981Z,4.80
2018-02-15T16:06:52.242Z,4.80
2018-02-15T16:09:53.720Z,4.80
2018-02-15T16:12:55.394Z,4.80
2018-02-15T16:15:57.803Z,4.90
2018-02-15T16:18:59.521Z,4.80
2018-02-15T16:22:01.028Z,4.90
2018-02-15T16:25:02.560Z,4.90
2018-02-15T16:28:04.023Z,4.90
2018-02-15T16:31:06.240Z,4.90
2018-02-15T16:34:08.384Z,5.00
2018-02-15T16:37:10.568Z,5.00
2018-02-15T16:40:12.063Z,4.90
2018-02-15T16:43:14.063Z,5.00
2018-02-15T16:46:15.531Z,5.10
2018-02-15T16:49:17.044Z,5.10
2018-02-15T16:52:18.500Z,5.10
2018-02-15T16:55:19.958Z,5.10
2018-02-15T16:58:22.150Z,5.20
2018-02-15T17:01:23.613Z,5.10
2018-02-15T17:04:25.045Z,5.00
2018-02-15T17:07:27.238Z,5.20
2018-02-15T17:10:29.409Z,5.20
2018-02-15T17:13:31.072Z,5.20
2018-02-15T17:16:32.545Z,5.40
2018-02-15T17:19:34.018Z,5.50
2018-02-15T17:22:35.569Z,5.70
2018-02-15T17:25:37.073Z,5.30
2018-02-15T17:28:39.309Z,5.20
2018-02-15T17:31:40.772Z,5.00
2018-02-15T17:34:42.256Z,5.30
2018-02-15T17:37:44.459Z,5.20
2018-02-15T17:40:46.689Z,5.20
2018-02-15T17:43:48.168Z,5.20
2018-02-15T17:46:49.656Z,5.20
2018-02-15T17:49:51.139Z,5.20
2018-02-15T17:52:52.576Z,5.20
2018-02-15T17:55:54.044Z,5.30
2018-02-15T17:58:55.517Z,5.30
2018-02-15T18:01:57.024Z,5.30
2018-02-15T18:04:58.519Z,5.40
2018-02-15T18:08:00.036Z,5.20
2018-02-15T18:11:01.561Z,5.50
2018-02-15T18:14:03.012Z,5.40
2018-02-15T18:17:04.501Z,5.40
2018-02-15T18:20:06.129Z,5.50
2018-02-15T18:23:08.126Z,5.50
2018-02-15T18:26:09.920Z,5.50
2018-02-15T18:29:11.648Z,5.50
2018-02-15T18:32:13.526Z,5.70
2018-02-15T18:35:15.772Z,5.50
2018-02-15T18:38:17.278Z,5.20
2018-02-15T18:41:18.753Z,5.60
2018-02-15T18:44:20.200Z,5.60
2018-02-15T18:47:21.641Z,5.70
2018-02-15T18:50:23.146Z,5.60
2018-02-15T18:53:24.565Z,5.70
2018-02-15T18:56:25.985Z,5.70
2018-02-15T18:59:27.419Z,5.70
2018-02-15T19:02:28.978Z,5.50
2018-02-15T19:05:30.403Z,5.70
2018-02-15T19:08:31.830Z,5.80
2018-02-15T19:11:33.277Z,5.60
2018-02-15T19:14:34.742Z,5.90
2018-02-15T19:17:36.472Z,6.00
2018-02-15T19:20:38.640Z,5.90
2018-02-15T19:23:40.085Z,5.90
2018-02-15T19:26:41.864Z,5.90
2018-02-15T19:29:44.298Z,5.80
2018-02-15T19:32:45.736Z,5.80
2018-02-15T19:35:47.998Z,5.80
2018-02-15T19:38:50.668Z,5.80
2018-02-15T19:41:52.266Z,5.80
2018-02-15T19:44:54.196Z,5.70
2018-02-15T19:47:55.663Z,5.80
2018-02-15T19:50:57.153Z,5.70
2018-02-15T19:53:59.691Z,5.70
2018-02-15T19:57:02.228Z,5.70
2018-02-15T20:00:03.896Z,5.70
2018-02-15T20:03:06.373Z,5.60
2018-02-15T20:06:07.979Z,5.60
2018-02-15T20:09:11.232Z,5.50
2018-02-15T20:12:12.784Z,5.50
2018-02-15T20:15:14.496Z,5.40
2018-02-15T20:18:15.971Z,5.00
2018-02-15T20:21:17.483Z,5.00
2018-02-15T20:24:19.898Z,5.20
2018-02-15T20:27:27.414Z,5.30
2018-02-15T20:30:30.029Z,4.90
2018-02-15T20:33:32.358Z,4.80
2018-02-15T20:36:33.838Z,4.60
2018-02-15T20:39:41.230Z,4.80
2018-02-15T20:42:42.645Z,4.70
2018-02-15T20:45:45.087Z,4.70
2018-02-15T20:48:46.614Z,4.70
2018-02-15T20:51:54.259Z,4.70
2018-02-15T20:55:02.704Z,4.70
2018-02-15T20:58:05.012Z,4.70
2018-02-15T21:01:07.135Z,4.80
2018-02-15T21:04:08.787Z,4.90
2018-02-15T21:07:10.216Z,4.80
2018-02-15T21:10:11.724Z,4.70
2018-02-15T21:13:13.252Z,4.60
2018-02-15T21:16:15.433Z,4.60
2018-02-15T21:19:16.806Z,4.40
2018-02-15T21:22:18.219Z,4.30
2018-02-15T21:25:19.710Z,4.20
2018-02-15T21:28:22.035Z,4.50
2018-02-15T21:31:23.653Z,4.50
2018-02-15T21:34:25.179Z,4.50
2018-02-15T21:37:26.586Z,4.50
2018-02-15T21:40:29.116Z,4.40
2018-02-15T21:43:30.628Z,4.20
2018-02-15T21:46:32.115Z,4.20
2018-02-15T21:49:34.258Z,4.10
2018-02-15T21:52:35.862Z,3.80
2018-02-15T21:55:37.403Z,4.10
2018-02-15T21:58:38.936Z,4.00
2018-02-15T22:01:40.451Z,4.00
2018-02-15T22:04:42.126Z,4.10
2018-02-15T22:07:43.706Z,4.00
2018-02-15T22:10:45.357Z,4.10
2018-02-15T22:13:48.373Z,4.00
2018-02-15T22:16:49.941Z,3.70
2018-02-15T22:19:51.438Z,3.70
2018-02-15T22:22:52.994Z,3.90
2018-02-15T22:25:54.552Z,3.80
2018-02-15T22:28:56.886Z,3.90
2018-02-15T22:31:58.335Z,3.90
2018-02-15T22:35:00.571Z,4.00
2018-02-15T22:38:02.015Z,4.00
2018-02-15T22:41:07.245Z,4.00
2018-02-15T22:44:09.874Z,4.00
2018-02-15T22:47:11.421Z,4.00
2018-02-15T22:50:12.851Z,3.70
2018-02-15T22:53:14.320Z,3.80
2018-02-15T22:56:15.789Z,3.70
2018-02-15T22:59:17.289Z,3.60
2018-02-15T23:02:18.792Z,3.60
2018-02-15T23:05:20.271Z,3.50
2018-02-15T23:08:21.695Z,3.50
2018-02-15T23:11:23.161Z,3.50
2018-02-15T23:14:24.632Z,3.60
2018-02-15T23:17:26.071Z,3.70
2018-02-15T23:20:27.500Z,3.70
2018-02-15T23:23:28.935Z,3.60
2018-02-15T23:26:30.369Z,3.60
2018-02-15T23:29:31.875Z,3.50
2018-02-15T23:32:33.323Z,3.20
2018-02-15T23:35:34.796Z,3.50
2018-02-15T23:38:36.289Z,3.50
2018-02-15T23:41:37.809Z,3.60
2018-02-15T23:44:39.269Z,3.40
2018-02-15T23:47:40.749Z,3.50
2018-02-15T23:50:42.198Z,3.50
2018-02-15T23:53:44.396Z,3.30
2018-02-15T23:56:45.905Z,3.20
2018-02-15T23:59:48.127Z,3.40
